Map

Track Data

SID SEASON NUMBER BASIN SUBBASIN NAME ISO_TIME NATURE LAT LON WMO_WIND WMO_PRES WMO_AGENCY TRACK_TYPE DIST2LAND LANDFALL IFLAG USA_AGENCY USA_ATCF_ID USA_LAT USA_LON USA_RECORD USA_STATUS USA_WIND USA_PRES USA_SSHS USA_R34_NE USA_R34_SE USA_R34_SW USA_R34_NW USA_R50_NE USA_R50_SE USA_R50_SW USA_R50_NW USA_R64_NE USA_R64_SE USA_R64_SW USA_R64_NW USA_POCI USA_ROCI USA_RMW USA_EYE TOKYO_LAT TOKYO_LON TOKYO_GRADE TOKYO_WIND TOKYO_PRES TOKYO_R50_DIR TOKYO_R50_LONG TOKYO_R50_SHORT TOKYO_R30_DIR TOKYO_R30_LONG TOKYO_R30_SHORT TOKYO_LAND CMA_LAT CMA_LON CMA_CAT CMA_WIND CMA_PRES HKO_LAT HKO_LON HKO_CAT HKO_WIND HKO_PRES NEWDELHI_LAT NEWDELHI_LON NEWDELHI_GRADE NEWDELHI_WIND NEWDELHI_PRES NEWDELHI_CI NEWDELHI_DP NEWDELHI_POCI REUNION_LAT REUNION_LON REUNION_TYPE REUNION_WIND REUNION_PRES REUNION_TNUM REUNION_CI REUNION_RMW REUNION_R34_NE REUNION_R34_SE REUNION_R34_SW REUNION_R34_NW REUNION_R50_NE REUNION_R50_SE REUNION_R50_SW REUNION_R50_NW REUNION_R64_NE REUNION_R64_SE REUNION_R64_SW REUNION_R64_NW BOM_LAT BOM_LON BOM_TYPE BOM_WIND BOM_PRES BOM_TNUM BOM_CI BOM_RMW BOM_R34_NE BOM_R34_SE BOM_R34_SW BOM_R34_NW BOM_R50_NE BOM_R50_SE BOM_R50_SW BOM_R50_NW BOM_R64_NE BOM_R64_SE BOM_R64_SW BOM_R64_NW BOM_ROCI BOM_POCI BOM_EYE BOM_POS_METHOD BOM_PRES_METHOD NADI_LAT NADI_LON NADI_CAT NADI_WIND NADI_PRES WELLINGTON_LAT WELLINGTON_LON WELLINGTON_WIND WELLINGTON_PRES DS824_LAT DS824_LON DS824_STAGE DS824_WIND DS824_PRES TD9636_LAT TD9636_LON TD9636_STAGE TD9636_WIND TD9636_PRES TD9635_LAT TD9635_LON TD9635_WIND TD9635_PRES TD9635_ROCI NEUMANN_LAT NEUMANN_LON NEUMANN_CLASS NEUMANN_WIND NEUMANN_PRES MLC_LAT MLC_LON MLC_CLASS MLC_WIND MLC_PRES USA_GUST BOM_GUST BOM_GUST_PER REUNION_GUST REUNION_GUST_PER USA_SEAHGT USA_SEARAD_NE USA_SEARAD_SE USA_SEARAD_SW USA_SEARAD_NW STORM_SPEED STORM_DIR
1981250N15306 1981 76 NA NA GERT 1981-09-07 00:00:00 TS 14.8000 -54.0000 25 1013 hurdat_atl main 887 814 O_____________ hurdat_atl AL151981 14.8000 -54.0000 TD 25 1013 -1 16 273
1981250N15306 1981 76 NA NA GERT 1981-09-07 03:00:00 TS 14.8406 -54.8475 main 814 742 P_____________ AL151981 14.8406 -54.8475 TD 27 1012 -1 16 273
1981250N15306 1981 76 NA NA GERT 1981-09-07 06:00:00 TS 14.9000 -55.7000 30 1012 hurdat_atl main 742 685 O_____________ hurdat_atl AL151981 14.9000 -55.7000 TD 30 1012 -1 17 275
1981250N15306 1981 76 NA NA GERT 1981-09-07 09:00:00 TS 14.9923 -56.5575 main 677 628 P_____________ AL151981 14.9923 -56.5575 TD 30 1012 -1 17 277
1981250N15306 1981 76 NA NA GERT 1981-09-07 12:00:00 TS 15.1000 -57.4000 30 1012 hurdat_atl main 628 588 O_____________ hurdat_atl AL151981 15.1000 -57.4000 TD 30 1012 -1 16 277
1981250N15306 1981 76 NA NA GERT 1981-09-07 15:00:00 TS 15.1921 -58.2077 main 588 558 P_____________ AL151981 15.1921 -58.2077 TD 30 1011 -1 16 277
1981250N15306 1981 76 NA NA GERT 1981-09-07 18:00:00 TS 15.3000 -59.0000 30 1010 hurdat_atl main 558 544 O_____________ hurdat_atl AL151981 15.3000 -59.0000 TD 30 1010 -1 15 279
1981250N15306 1981 76 NA NA GERT 1981-09-07 21:00:00 TS 15.4271 -59.7927 main 542 539 P_____________ AL151981 15.4271 -59.7927 TD 35 1009 0 16 281
1981250N15306 1981 76 NA CS GERT 1981-09-08 00:00:00 TS 15.6000 -60.6000 40 1008 hurdat_atl main 550 521 O_____________ hurdat_atl AL151981 15.6000 -60.6000 TS 40 1008 0 16 284
1981250N15306 1981 76 NA CS GERT 1981-09-08 03:00:00 TS 15.8198 -61.4427 main 521 422 P_____________ AL151981 15.8198 -61.4427 TS 42 1006 0 17 287
1981250N15306 1981 76 NA CS GERT 1981-09-08 06:00:00 TS 16.1000 -62.3000 45 1005 hurdat_atl main 422 333 O_____________ hurdat_atl AL151981 16.1000 -62.3000 TS 45 1005 0 18 290
1981250N15306 1981 76 NA CS GERT 1981-09-08 09:00:00 TS 16.4124 -63.1727 main 324 230 P_____________ AL151981 16.4124 -63.1727 TS 47 1003 0 18 293
1981250N15306 1981 76 NA CS GERT 1981-09-08 12:00:00 TS 16.8000 -64.0000 50 1002 hurdat_atl main 230 147 O_____________ hurdat_atl AL151981 16.8000 -64.0000 TS 50 1002 0 17 300
1981250N15306 1981 76 NA CS GERT 1981-09-08 15:00:00 TS 17.2694 -64.7154 main 138 47 P_____________ AL151981 17.2694 -64.7154 TS 50 1003 0 17 307
1981250N15306 1981 76 NA CS GERT 1981-09-08 18:00:00 TS 17.8000 -65.4000 50 1004 hurdat_atl main 47 0 O_____________ hurdat_atl AL151981 17.8000 -65.4000 TS 50 1004 0 18 309
1981250N15306 1981 76 NA NA GERT 1981-09-08 21:00:00 TS 18.3724 -66.1498 main 0 0 P_____________ AL151981 18.3724 -66.1498 TS 47 1005 0 18 308
1981250N15306 1981 76 NA NA GERT 1981-09-09 00:00:00 TS 18.9000 -66.9000 45 1006 hurdat_atl main 55 55 O_____________ hurdat_atl AL151981 18.9000 -66.9000 TS 45 1006 0 16 304
1981250N15306 1981 76 NA NA GERT 1981-09-09 03:00:00 TS 19.2794 -67.5859 main 105 88 P_____________ AL151981 19.2794 -67.5859 TS 42 1007 0 15 298
1981250N15306 1981 76 NA NA GERT 1981-09-09 06:00:00 TS 19.6000 -68.3000 40 1009 hurdat_atl main 94 69 O_____________ hurdat_atl AL151981 19.6000 -68.3000 TS 40 1009 0 16 294
1981250N15306 1981 76 NA NA GERT 1981-09-09 09:00:00 TS 19.9274 -69.1281 main 70 64 P_____________ AL151981 19.9274 -69.1281 TS 37 1010 0 17 294
1981250N15306 1981 76 NA NA GERT 1981-09-09 12:00:00 TS 20.3000 -70.0000 35 1011 hurdat_atl main 78 74 O_____________ hurdat_atl AL151981 20.3000 -70.0000 TS 35 1011 0 19 298
1981250N15306 1981 76 NA NA GERT 1981-09-09 15:00:00 TS 20.7927 -70.8945 main 111 111 P_____________ AL151981 20.7927 -70.8945 TS 35 1011 0 19 302
1981250N15306 1981 76 NA NA GERT 1981-09-09 18:00:00 TS 21.3000 -71.7000 35 1012 hurdat_atl main 135 91 O_____________ hurdat_atl AL151981 21.3000 -71.7000 TS 35 1012 0 16 305
1981250N15306 1981 76 NA NA GERT 1981-09-09 21:00:00 TS 21.7294 -72.3106 main 91 84 P_____________ AL151981 21.7294 -72.3106 TS 37 1011 0 13 308
1981250N15306 1981 76 NA NA GERT 1981-09-10 00:00:00 TS 22.1000 -72.8000 40 1010 hurdat_atl main 102 101 O_____________ hurdat_atl AL151981 22.1000 -72.8000 TS 40 1010 0 11 306
1981250N15306 1981 76 NA NA GERT 1981-09-10 03:00:00 TS 22.3848 -73.2732 main 134 134 P_____________ AL151981 22.3848 -73.2732 TS 45 1009 0 10 306
1981250N15306 1981 76 NA NA GERT 1981-09-10 06:00:00 TS 22.7000 -73.7000 50 1008 hurdat_atl main 175 175 O_____________ hurdat_atl AL151981 22.7000 -73.7000 TS 50 1008 0 11 313
1981250N15306 1981 76 NA NA GERT 1981-09-10 09:00:00 TS 23.1627 -74.1743 main 240 240 P_____________ AL151981 23.1627 -74.1743 TS 55 1004 0 12 324
1981250N15306 1981 76 NA NA GERT 1981-09-10 12:00:00 TS 23.7000 -74.5000 60 1001 hurdat_atl main 302 302 O_____________ hurdat_atl AL151981 23.7000 -74.5000 TS 60 1001 0 11 342
1981250N15306 1981 76 NA NA GERT 1981-09-10 15:00:00 TS 24.2123 -74.5477 main 325 323 P_____________ AL151981 24.2123 -74.5477 TS 65 998 1 11 5
1981250N15306 1981 76 NA NA GERT 1981-09-10 18:00:00 TS 24.8000 -74.4000 70 996 hurdat_atl main 334 334 O_____________ hurdat_atl AL151981 24.8000 -74.4000 HU 70 996 1 14 13
1981250N15306 1981 76 NA NA GERT 1981-09-10 21:00:00 TS 25.5274 -74.2098 main 369 369 P_____________ AL151981 25.5274 -74.2098 HU 75 994 1 16 17
1981250N15306 1981 76 NA NA GERT 1981-09-11 00:00:00 TS 26.3000 -73.9000 80 993 hurdat_atl main 429 429 O_____________ hurdat_atl AL151981 26.3000 -73.9000 HU 80 993 1 16 24
1981250N15306 1981 76 NA NA GERT 1981-09-11 03:00:00 TS 27.0150 -73.4874 main 496 496 P_____________ AL151981 27.0150 -73.4874 HU 82 991 1 16 30
1981250N15306 1981 76 NA NA GERT 1981-09-11 06:00:00 TS 27.7000 -73.0000 85 990 hurdat_atl main 576 576 O_____________ hurdat_atl AL151981 27.7000 -73.0000 HU 85 990 2 16 33
1981250N15306 1981 76 NA NA GERT 1981-09-11 09:00:00 TS 28.3648 -72.5144 main 658 658 P_____________ AL151981 28.3648 -72.5144 HU 87 989 2 16 34
1981250N15306 1981 76 NA NA GERT 1981-09-11 12:00:00 TS 29.0000 -72.0000 90 988 hurdat_atl main 736 736 O_____________ hurdat_atl AL151981 29.0000 -72.0000 HU 90 988 2 15 36
1981250N15306 1981 76 NA NA GERT 1981-09-11 15:00:00 TS 29.5997 -71.4714 main 737 725 P_____________ AL151981 29.5997 -71.4714 HU 90 988 2 15 39
1981250N15306 1981 76 NA NA GERT 1981-09-11 18:00:00 TS 30.2000 -70.9000 90 988 hurdat_atl main 725 715 O_____________ hurdat_atl AL151981 30.2000 -70.9000 HU 90 988 2 17 40
1981250N15306 1981 76 NA NA GERT 1981-09-11 21:00:00 TS 30.8651 -70.2503 main 714 714 P_____________ AL151981 30.8651 -70.2503 HU 90 988 2 17 41
1981250N15306 1981 76 NA NA GERT 1981-09-12 00:00:00 TS 31.5000 -69.6000 90 989 hurdat_atl main 725 724 O_____________ hurdat_atl AL151981 31.5000 -69.6000 HU 90 989 2 15 41
1981250N15306 1981 76 NA NA GERT 1981-09-12 03:00:00 TS 32.0292 -69.0560 main 725 725 P_____________ AL151981 32.0292 -69.0560 HU 90 989 2 14 43
1981250N15306 1981 76 NA NA GERT 1981-09-12 06:00:00 TS 32.5000 -68.5000 90 990 hurdat_atl main 740 740 O_____________ hurdat_atl AL151981 32.5000 -68.5000 HU 90 990 2 14 48
1981250N15306 1981 76 NA NA GERT 1981-09-12 09:00:00 TS 32.9723 -67.8297 main 770 770 P_____________ AL151981 32.9723 -67.8297 HU 87 991 2 15 53
1981250N15306 1981 76 NA NA GERT 1981-09-12 12:00:00 TS 33.4000 -67.1000 85 992 hurdat_atl main 812 812 O_____________ hurdat_atl AL151981 33.4000 -67.1000 HU 85 992 2 14 57
1981250N15306 1981 76 NA NA GERT 1981-09-12 15:00:00 TS 33.7563 -66.4008 main 858 858 P_____________ AL151981 33.7563 -66.4008 HU 77 994 1 14 61
1981250N15306 1981 76 NA NA GERT 1981-09-12 18:00:00 TS 34.1000 -65.6000 70 997 hurdat_atl main 919 919 O_____________ hurdat_atl AL151981 34.1000 -65.6000 HU 70 997 1 16 63
1981250N15306 1981 76 NA NA GERT 1981-09-12 21:00:00 TS 34.4837 -64.6461 main 929 924 P_____________ AL151981 34.4837 -64.6461 HU 65 999 1 19 65
1981250N15306 1981 76 NA NA GERT 1981-09-13 00:00:00 TS 34.9000 -63.5000 60 1002 hurdat_atl main 944 944 O_____________ hurdat_atl AL151981 34.9000 -63.5000 TS 60 1002 0 22 67
1981250N15306 1981 76 NA NA GERT 1981-09-13 03:00:00 TS 35.3325 -62.2176 main 950 935 P_____________ AL151981 35.3325 -62.2176 TS 57 1004 0 25 68
1981250N15306 1981 76 NA NA GERT 1981-09-13 06:00:00 TS 35.8000 -60.7000 55 1006 hurdat_atl main 942 939 O_____________ hurdat_atl AL151981 35.8000 -60.7000 TS 55 1006 0 28 70
1981250N15306 1981 76 NA NA GERT 1981-09-13 09:00:00 TS 36.2997 -58.9245 main 968 968 P_____________ AL151981 36.2997 -58.9245 TS 52 1007 0 31 71
1981250N15306 1981 76 NA NA GERT 1981-09-13 12:00:00 TS 36.8000 -57.0000 50 1008 hurdat_atl main 995 990 O_____________ hurdat_atl AL151981 36.8000 -57.0000 TS 50 1008 0 32 72
1981250N15306 1981 76 NA NA GERT 1981-09-13 15:00:00 TS 37.2773 -55.1066 main 1010 989 P_____________ AL151981 37.2773 -55.1066 TS 47 1009 0 32 73
1981250N15306 1981 76 NA NA GERT 1981-09-13 18:00:00 TS 37.7000 -53.2000 45 1010 hurdat_atl main 989 964 O_____________ hurdat_atl AL151981 37.7000 -53.2000 TS 45 1010 0 31 76
1981250N15306 1981 76 NA NA GERT 1981-09-13 21:00:00 TS 38.0269 -51.2974 main 968 959 P_____________ AL151981 38.0269 -51.2974 TS 42 1010 0 30 79
1981250N15306 1981 76 NA NA GERT 1981-09-14 00:00:00 TS 38.3000 -49.4000 40 1010 hurdat_atl main 973 973 O_____________ hurdat_atl AL151981 38.3000 -49.4000 TS 40 1010 0 30 80
1981250N15306 1981 76 NA NA GERT 1981-09-14 03:00:00 TS 38.5623 -47.4913 main 1003 1003 P_____________ AL151981 38.5623 -47.4913 TS 40 1010 0 30 80
1981250N15306 1981 76 NA NA GERT 1981-09-14 06:00:00 TS 38.8000 -45.6000 40 1011 hurdat_atl main 1064 1064 O_____________ hurdat_atl AL151981 38.8000 -45.6000 TS 40 1011 0 30 81
1981250N15306 1981 76 NA NA GERT 1981-09-14 09:00:00 TS 39.0056 -43.7112 main 1143 1143 P_____________ AL151981 39.0056 -43.7112 TS 37 1011 0 29 82
1981250N15306 1981 76 NA NA GERT 1981-09-14 12:00:00 TS 39.2000 -41.9000 35 1012 hurdat_atl main 1229 1229 O_____________ hurdat_atl AL151981 39.2000 -41.9000 TS 35 1012 0 27 82
1981250N15306 1981 76 NA NA GERT 1981-09-14 15:00:00 TS 39.4038 -40.2195 main 1319 1319 P_____________ AL151981 39.4038 -40.2195 TS 32 1012 -1 26 81
1981250N15306 1981 76 NA NA GERT 1981-09-14 18:00:00 TS 39.6000 -38.6000 30 1012 hurdat_atl main 1408 1408 O_____________ hurdat_atl AL151981 39.6000 -38.6000 TD 30 1012 -1 26 82
1981250N15306 1981 76 NA NA GERT 1981-09-14 21:00:00 TS 39.7655 -36.8749 main 1509 1509 P_____________ AL151981 39.7655 -36.8749 TD 30 1012 -1 25 83
1981250N15306 1981 76 NA NA GERT 1981-09-15 00:00:00 TS 39.9000 -35.3000 30 1012 hurdat_atl main 1614 1614 O_____________ hurdat_atl AL151981 39.9000 -35.3000 TD 30 1012 -1 22 84
1981250N15306 1981 76 NA NA GERT 1981-09-15 03:00:00 TS 40.0038 -34.0740 main 1692 1692 P_____________ AL151981 40.0038 -34.0740 TD 27 1012 -1 18 84
1981250N15306 1981 76 NA NA GERT 1981-09-15 06:00:00 TS 40.1000 -33.0000 25 1012 hurdat_atl main 1763 1763 O_____________ hurdat_atl AL151981 40.1000 -33.0000 TD 25 1012 -1 17 83
1981250N15306 1981 76 NA NA GERT 1981-09-15 09:00:00 TS 40.1984 -31.8646 main 1834 1799 P_____________ AL151981 40.1984 -31.8646 TD 25 1012 -1 18 84
1981250N15306 1981 76 NA NA GERT 1981-09-15 12:00:00 TS 40.3000 -30.7000 25 1012 hurdat_atl main 1791 1691 O_____________ hurdat_atl AL151981 40.3000 -30.7000 TD 25 1012 -1 18 84
1981250N15306 1981 76 NA NA GERT 1981-09-15 15:00:00 TS 40.4031 -29.4709 main 1691 1591 P_____________ AL151981 40.4031 -29.4709 TD 22 1012 -1 19 84
1981250N15306 1981 76 NA NA GERT 1981-09-15 18:00:00 TS 40.5000 -28.2000 20 1012 hurdat_atl main 1582 O_____________ hurdat_atl AL151981 40.5000 -28.2000 TD 20 1012 -1 19 84

About IBTrACS Database

This database is a web-friendly format of International Best Track Archive for Climate Stewardship (IBTrACS), a global best track data archive curated by NOAA dating back to 1842.

Updated: 2021-10-25